createdAt,value
2023-04-16T00:00:44.329Z,9.11
2023-04-16T00:03:11.056Z,9.18
2023-04-16T00:05:38.156Z,9.14
2023-04-16T00:08:04.748Z,9.17
2023-04-16T00:10:31.443Z,9.18
2023-04-16T00:12:57.937Z,9.15
2023-04-16T00:15:24.851Z,9.19
2023-04-16T00:17:51.409Z,9.13
2023-04-16T00:20:18.084Z,9.23
2023-04-16T00:22:44.952Z,9.23
2023-04-16T00:25:11.623Z,9.23
2023-04-16T00:27:38.193Z,9.20
2023-04-16T00:30:05.331Z,9.08
2023-04-16T00:32:31.914Z,9.21
2023-04-16T00:34:59.376Z,9.22
2023-04-16T00:37:26.089Z,9.15
2023-04-16T00:39:52.776Z,9.21
2023-04-16T00:42:19.434Z,9.17
2023-04-16T00:44:48.825Z,9.15
2023-04-16T00:47:15.493Z,9.16
2023-04-16T00:49:44.729Z,9.21
2023-04-16T00:52:11.821Z,9.18
2023-04-16T00:54:39.089Z,9.19
2023-04-16T00:57:06.286Z,9.17
2023-04-16T00:59:32.832Z,9.20
2023-04-16T01:02:02.236Z,9.16
2023-04-16T01:04:31.078Z,9.19
2023-04-16T01:06:57.891Z,9.21
2023-04-16T01:09:25.003Z,9.22
2023-04-16T01:11:53.376Z,9.14
2023-04-16T01:14:23.606Z,9.13
2023-04-16T01:16:50.434Z,9.13
2023-04-16T01:19:17.159Z,9.07
2023-04-16T01:21:43.928Z,9.11
2023-04-16T01:24:10.873Z,9.07
2023-04-16T01:26:37.637Z,9.13
2023-04-16T01:29:04.475Z,9.11
2023-04-16T01:31:31.183Z,9.09
2023-04-16T01:33:57.673Z,9.12
2023-04-16T01:36:24.295Z,9.17
2023-04-16T01:38:50.950Z,9.16
2023-04-16T01:41:17.462Z,9.20
2023-04-16T01:43:44.227Z,9.10
2023-04-16T01:46:29.644Z,9.13
2023-04-16T01:48:57.176Z,9.09
2023-04-16T01:51:24.155Z,9.10
2023-04-16T01:53:51.102Z,9.11
2023-04-16T01:56:17.639Z,9.15
2023-04-16T01:58:46.205Z,9.12
2023-04-16T02:01:13.572Z,9.13
2023-04-16T02:03:40.812Z,9.07
2023-04-16T02:06:09.469Z,9.11
2023-04-16T02:08:37.521Z,9.15
2023-04-16T02:11:05.951Z,9.12
2023-04-16T02:13:32.768Z,9.16
2023-04-16T02:16:00.595Z,9.16
2023-04-16T02:18:27.281Z,9.10
2023-04-16T02:20:53.797Z,9.06
2023-04-16T02:23:20.725Z,9.13
2023-04-16T02:25:47.951Z,9.14
2023-04-16T02:28:16.760Z,9.16
2023-04-16T02:30:43.818Z,9.16
2023-04-16T02:33:11.811Z,9.11
2023-04-16T02:35:39.288Z,9.07
2023-04-16T02:38:06.578Z,9.12
2023-04-16T02:40:33.372Z,9.07
2023-04-16T02:42:59.967Z,9.05
2023-04-16T02:45:26.559Z,9.02
2023-04-16T02:47:53.128Z,9.05
2023-04-16T02:50:19.696Z,9.04
2023-04-16T02:52:46.414Z,9.02
2023-04-16T02:55:12.876Z,8.94
2023-04-16T02:57:39.404Z,8.97
2023-04-16T03:00:06.292Z,8.98
2023-04-16T03:02:32.991Z,8.97
2023-04-16T03:04:59.630Z,8.99
2023-04-16T03:07:27.069Z,8.98
2023-04-16T03:09:53.866Z,8.94
2023-04-16T03:12:20.670Z,8.96
2023-04-16T03:14:48.748Z,8.91
2023-04-16T03:17:17.881Z,8.98
2023-04-16T03:19:44.370Z,8.95
2023-04-16T03:22:11.062Z,8.88
2023-04-16T03:24:38.359Z,8.96
2023-04-16T03:27:05.137Z,8.96
2023-04-16T03:29:31.821Z,8.89
2023-04-16T03:31:58.605Z,8.93
2023-04-16T03:34:25.124Z,9.00
2023-04-16T03:36:51.757Z,8.97
2023-04-16T03:39:18.523Z,8.92
2023-04-16T03:41:45.252Z,8.90
2023-04-16T03:44:11.831Z,8.95
2023-04-16T03:46:38.861Z,8.93
2023-04-16T03:49:05.446Z,8.93
2023-04-16T03:51:32.583Z,8.92
2023-04-16T03:53:59.225Z,8.95
2023-04-16T03:56:26.390Z,8.98
2023-04-16T03:58:52.940Z,8.96
2023-04-16T04:01:19.469Z,8.95
2023-04-16T04:03:46.357Z,8.96
2023-04-16T04:06:13.553Z,8.94
2023-04-16T04:08:40.109Z,8.93
2023-04-16T04:11:06.745Z,8.90
2023-04-16T04:13:33.402Z,8.85
2023-04-16T04:16:00.133Z,8.89
2023-04-16T04:18:26.793Z,8.88
2023-04-16T04:20:54.679Z,8.93
2023-04-16T04:23:21.908Z,8.88
2023-04-16T04:25:48.611Z,8.87
2023-04-16T04:28:15.730Z,8.89
2023-04-16T04:30:42.199Z,8.88
2023-04-16T04:33:08.825Z,8.95
2023-04-16T04:35:35.727Z,8.90
2023-04-16T04:38:03.295Z,8.88
2023-04-16T04:40:29.884Z,8.92
2023-04-16T04:42:56.699Z,8.87
2023-04-16T04:45:25.639Z,8.85
2023-04-16T04:47:55.364Z,8.84
2023-04-16T04:50:22.214Z,8.85
2023-04-16T04:52:49.067Z,8.85
2023-04-16T04:55:16.360Z,8.79
2023-04-16T04:57:42.912Z,8.81
2023-04-16T05:00:09.690Z,8.82
2023-04-16T05:02:36.507Z,8.79
2023-04-16T05:05:03.464Z,8.80
2023-04-16T05:07:30.083Z,8.80
2023-04-16T05:09:56.564Z,8.71
2023-04-16T05:12:23.314Z,8.69
2023-04-16T05:14:49.955Z,8.68
2023-04-16T05:17:16.590Z,8.72
2023-04-16T05:19:43.583Z,8.66
2023-04-16T05:22:10.523Z,8.69
2023-04-16T05:24:37.148Z,8.68
2023-04-16T05:27:05.137Z,8.75
2023-04-16T05:29:31.682Z,8.74
2023-04-16T05:31:58.213Z,8.70
2023-04-16T05:34:24.905Z,8.80
2023-04-16T05:36:51.421Z,8.71
2023-04-16T05:39:21.645Z,8.73
2023-04-16T05:41:48.124Z,8.66
2023-04-16T05:44:15.656Z,8.70
2023-04-16T05:46:42.296Z,8.73
2023-04-16T05:49:09.222Z,8.75
2023-04-16T05:51:36.459Z,8.75
2023-04-16T05:54:03.296Z,8.73
2023-04-16T05:56:29.798Z,8.67
2023-04-16T05:58:56.329Z,8.74
2023-04-16T06:01:23.092Z,8.72
2023-04-16T06:03:49.880Z,8.68
2023-04-16T06:06:16.484Z,8.72
2023-04-16T06:08:43.957Z,8.80
2023-04-16T06:11:10.690Z,8.79
2023-04-16T06:13:37.822Z,8.81
2023-04-16T06:16:04.721Z,8.87
2023-04-16T06:18:31.531Z,8.89
2023-04-16T06:20:59.501Z,8.85
2023-04-16T06:23:26.088Z,8.81
2023-04-16T06:25:52.806Z,8.84
2023-04-16T06:28:19.305Z,8.93
2023-04-16T06:30:46.717Z,8.93
2023-04-16T06:33:13.408Z,8.83
2023-04-16T06:35:40.052Z,8.86
2023-04-16T06:38:06.756Z,8.91
2023-04-16T06:40:33.294Z,8.89
2023-04-16T06:42:59.970Z,8.88
2023-04-16T06:45:26.716Z,8.93
2023-04-16T06:47:53.423Z,8.84
2023-04-16T06:50:20.230Z,8.83
2023-04-16T06:52:46.878Z,8.86
2023-04-16T06:55:13.489Z,8.89
2023-04-16T06:57:40.972Z,8.88
2023-04-16T07:00:08.231Z,8.86
2023-04-16T07:02:35.226Z,8.73
2023-04-16T07:05:02.094Z,8.85
2023-04-16T07:07:28.881Z,8.88
2023-04-16T07:09:55.863Z,8.97
2023-04-16T07:12:22.924Z,8.94
2023-04-16T07:14:50.070Z,8.88
2023-04-16T07:17:16.515Z,8.91
2023-04-16T07:19:42.989Z,8.95
2023-04-16T07:22:09.425Z,8.91
2023-04-16T07:24:36.222Z,8.91
2023-04-16T07:27:03.340Z,8.87
2023-04-16T07:29:29.959Z,8.91
2023-04-16T07:31:57.086Z,8.99
2023-04-16T07:34:23.942Z,8.91
2023-04-16T07:36:50.624Z,8.89
2023-04-16T07:39:17.245Z,8.97
2023-04-16T07:41:44.095Z,8.93
2023-04-16T07:44:11.026Z,8.96
2023-04-16T07:46:46.266Z,8.99
2023-04-16T07:49:13.750Z,9.02
2023-04-16T07:51:40.921Z,9.02
2023-04-16T07:54:07.596Z,9.04
2023-04-16T07:56:34.318Z,9.16
2023-04-16T07:59:07.906Z,9.17
2023-04-16T08:01:41.331Z,9.14
2023-04-16T08:04:07.980Z,9.13
2023-04-16T08:06:34.796Z,9.19
2023-04-16T08:09:05.009Z,9.13
2023-04-16T08:11:31.785Z,9.22
2023-04-16T08:14:01.484Z,9.14
2023-04-16T08:16:28.255Z,9.21
2023-04-16T08:18:54.933Z,9.20
2023-04-16T08:21:22.280Z,9.32
2023-04-16T08:23:48.753Z,9.33
2023-04-16T08:26:16.808Z,9.36
2023-04-16T08:28:43.535Z,9.30
2023-04-16T08:31:10.237Z,9.36
2023-04-16T08:33:36.772Z,9.37
2023-04-16T08:36:04.491Z,9.36
2023-04-16T08:38:31.146Z,9.36
2023-04-16T08:41:02.848Z,9.31
2023-04-16T08:43:33.634Z,9.40
2023-04-16T08:48:33.385Z,9.41
2023-04-16T08:51:00.637Z,9.42
2023-04-16T08:53:32.798Z,9.37
2023-04-16T08:56:03.691Z,9.55
2023-04-16T08:58:31.962Z,9.53
2023-04-16T09:00:58.325Z,9.55
2023-04-16T09:03:25.093Z,9.52
2023-04-16T09:05:52.272Z,9.62
2023-04-16T09:08:18.862Z,9.62
2023-04-16T09:10:45.883Z,9.63
2023-04-16T09:13:13.565Z,9.56
2023-04-16T09:15:41.228Z,9.52
2023-04-16T09:20:51.194Z,9.53
2023-04-16T09:23:18.213Z,9.41
2023-04-16T09:25:44.698Z,9.29
2023-04-16T09:28:11.419Z,9.30
2023-04-16T09:30:38.479Z,9.23
2023-04-16T09:33:23.618Z,9.21
2023-04-16T09:35:50.901Z,9.24
2023-04-16T09:38:18.057Z,9.28
2023-04-16T09:40:45.282Z,9.35
2023-04-16T09:43:13.127Z,9.29
2023-04-16T09:45:48.786Z,9.26
2023-04-16T09:48:15.949Z,9.29
2023-04-16T09:50:47.745Z,9.22
2023-04-16T09:53:23.516Z,9.22
2023-04-16T09:55:50.161Z,9.30
2023-04-16T09:58:19.132Z,9.27
2023-04-16T10:00:45.850Z,9.25
2023-04-16T10:03:12.667Z,9.21
2023-04-16T10:05:39.178Z,9.06
2023-04-16T10:08:12.462Z,9.11
2023-04-16T10:10:39.602Z,9.11
2023-04-16T10:13:06.694Z,8.85
2023-04-16T10:15:33.411Z,8.95
2023-04-16T10:18:00.509Z,8.88
2023-04-16T10:20:30.569Z,8.95
2023-04-16T10:22:57.705Z,8.91
2023-04-16T10:25:24.944Z,8.96
2023-04-16T10:27:51.690Z,8.87
2023-04-16T10:30:19.582Z,9.13
2023-04-16T10:32:46.614Z,9.16
2023-04-16T10:35:16.146Z,9.29
2023-04-16T10:37:42.738Z,9.19
2023-04-16T10:40:22.608Z,9.41
2023-04-16T10:42:56.004Z,9.50
2023-04-16T10:45:32.933Z,9.41
2023-04-16T10:47:59.843Z,9.23
2023-04-16T10:50:34.491Z,9.22
2023-04-16T10:53:22.917Z,9.41
2023-04-16T10:55:58.582Z,9.28
2023-04-16T10:58:29.185Z,9.40
2023-04-16T11:00:56.144Z,9.56
2023-04-16T11:03:22.890Z,9.45
2023-04-16T11:05:49.597Z,9.61
2023-04-16T11:08:16.647Z,9.57
2023-04-16T11:10:43.181Z,9.48
2023-04-16T11:13:12.902Z,9.76
2023-04-16T11:15:39.637Z,9.75
2023-04-16T11:18:07.244Z,9.90
2023-04-16T11:20:41.619Z,9.88
2023-04-16T11:23:10.966Z,9.75
2023-04-16T11:25:37.530Z,9.88
2023-04-16T11:28:04.267Z,9.87
2023-04-16T11:30:31.648Z,9.54
2023-04-16T11:32:58.480Z,9.66
2023-04-16T11:35:25.098Z,9.88
2023-04-16T11:37:55.694Z,9.73
2023-04-16T11:40:22.477Z,9.69
2023-04-16T11:42:49.109Z,9.64
2023-04-16T11:45:16.051Z,9.91
2023-04-16T11:47:55.368Z,9.90
2023-04-16T11:50:22.184Z,9.86
2023-04-16T11:52:49.886Z,10.09
2023-04-16T11:55:16.837Z,9.90
2023-04-16T11:57:43.529Z,10.06
2023-04-16T12:00:15.909Z,10.00
2023-04-16T12:02:47.252Z,9.73
2023-04-16T12:05:34.758Z,9.91
2023-04-16T12:08:02.631Z,10.06
2023-04-16T12:10:29.575Z,10.11
2023-04-16T12:13:09.549Z,10.12
2023-04-16T12:15:55.363Z,10.08
2023-04-16T12:18:24.661Z,10.31
2023-04-16T12:20:51.541Z,10.18
2023-04-16T12:23:35.950Z,10.02
2023-04-16T12:26:10.914Z,10.10
2023-04-16T12:28:40.850Z,10.03
2023-04-16T12:31:07.399Z,9.97
2023-04-16T12:33:33.962Z,10.09
2023-04-16T12:36:01.693Z,10.11
2023-04-16T12:38:28.905Z,10.01
2023-04-16T12:40:57.339Z,9.71
2023-04-16T12:43:24.147Z,9.91
2023-04-16T12:45:50.764Z,9.99
2023-04-16T12:48:18.338Z,9.91
2023-04-16T12:50:44.795Z,10.00
2023-04-16T12:53:11.759Z,9.78
2023-04-16T12:55:38.336Z,9.94
2023-04-16T12:58:05.006Z,9.70
2023-04-16T13:00:31.806Z,9.82
2023-04-16T13:02:58.672Z,10.06
2023-04-16T13:05:26.193Z,10.03
2023-04-16T13:07:52.800Z,9.90
2023-04-16T13:10:21.021Z,9.89
2023-04-16T13:12:47.549Z,10.05
2023-04-16T13:15:14.074Z,9.88
2023-04-16T13:17:40.765Z,9.88
2023-04-16T13:20:07.780Z,9.93
2023-04-16T13:22:34.434Z,9.86
2023-04-16T13:25:00.977Z,9.92
2023-04-16T13:27:27.466Z,9.93
2023-04-16T13:29:54.568Z,10.01
2023-04-16T13:32:21.246Z,9.90
2023-04-16T13:34:47.809Z,9.84
2023-04-16T13:37:14.501Z,9.77
2023-04-16T13:39:41.142Z,9.80
2023-04-16T13:42:10.609Z,9.77
2023-04-16T13:44:37.946Z,9.80
2023-04-16T13:47:04.488Z,9.82
2023-04-16T13:49:35.603Z,9.78
2023-04-16T13:52:04.849Z,9.75
2023-04-16T13:54:31.430Z,9.82
2023-04-16T13:56:58.168Z,9.78
2023-04-16T13:59:24.831Z,9.71
2023-04-16T14:01:51.420Z,9.78
2023-04-16T14:04:18.533Z,9.68
2023-04-16T14:06:45.304Z,9.66
2023-04-16T14:09:12.110Z,9.77
2023-04-16T14:11:38.701Z,9.73
2023-04-16T14:14:05.712Z,9.80
2023-04-16T14:16:32.375Z,9.62
2023-04-16T14:18:58.966Z,9.63
2023-04-16T14:21:27.160Z,9.72
2023-04-16T14:23:53.911Z,9.76
2023-04-16T14:26:20.769Z,9.64
2023-04-16T14:28:47.307Z,9.69
2023-04-16T14:31:13.998Z,9.66
2023-04-16T14:33:40.617Z,9.63
2023-04-16T14:36:15.132Z,9.70
2023-04-16T14:38:43.277Z,9.84
2023-04-16T14:41:10.779Z,9.77
2023-04-16T14:43:39.238Z,9.88
2023-04-16T14:46:07.068Z,9.49
2023-04-16T14:48:33.531Z,9.87
2023-04-16T14:51:00.103Z,9.87
2023-04-16T14:53:27.163Z,9.86
2023-04-16T14:55:53.773Z,9.87
2023-04-16T14:58:20.446Z,9.86
2023-04-16T15:00:46.957Z,9.88
2023-04-16T15:03:17.470Z,9.84
2023-04-16T15:05:44.192Z,10.01
2023-04-16T15:08:10.709Z,9.92
2023-04-16T15:10:37.854Z,9.82
2023-04-16T15:13:04.660Z,9.86
2023-04-16T15:15:31.160Z,9.96
2023-04-16T15:17:57.834Z,9.94
2023-04-16T15:20:24.536Z,9.92
2023-04-16T15:22:51.290Z,9.89
2023-04-16T15:25:17.881Z,10.07
2023-04-16T15:27:47.032Z,10.20
2023-04-16T15:30:13.822Z,10.18
2023-04-16T15:32:40.551Z,9.69
2023-04-16T15:35:09.183Z,10.18
2023-04-16T15:37:39.423Z,10.13
2023-04-16T15:40:08.649Z,9.82
2023-04-16T15:42:35.130Z,10.17
2023-04-16T15:45:01.783Z,10.00
2023-04-16T15:47:29.012Z,10.12
2023-04-16T15:49:55.731Z,10.08
2023-04-16T15:52:22.333Z,10.11
2023-04-16T15:54:49.325Z,10.16
2023-04-16T15:57:16.075Z,10.16
2023-04-16T15:59:44.648Z,10.17
2023-04-16T16:02:14.615Z,10.23
2023-04-16T16:04:46.003Z,10.12
2023-04-16T16:07:12.739Z,10.18
2023-04-16T16:09:39.244Z,10.04
2023-04-16T16:12:06.076Z,10.04
2023-04-16T16:14:33.134Z,9.94
2023-04-16T16:16:59.951Z,10.00
2023-04-16T16:19:27.132Z,10.01
2023-04-16T16:21:55.218Z,9.94
2023-04-16T16:24:22.622Z,10.05
2023-04-16T16:26:49.240Z,10.06
2023-04-16T16:29:16.021Z,10.14
2023-04-16T16:31:42.577Z,10.17
2023-04-16T16:34:17.114Z,10.12
2023-04-16T16:36:47.159Z,10.21
2023-04-16T16:39:14.278Z,10.13
2023-04-16T16:41:42.408Z,10.03
2023-04-16T16:44:09.880Z,10.10
2023-04-16T16:46:37.297Z,10.08
2023-04-16T16:49:05.650Z,9.98
2023-04-16T16:51:39.691Z,10.11
2023-04-16T16:54:07.695Z,10.02
2023-04-16T16:56:35.493Z,9.89
2023-04-16T16:59:03.079Z,10.04
2023-04-16T17:01:30.339Z,9.88
2023-04-16T17:03:57.407Z,9.80
2023-04-16T17:06:24.668Z,9.94
2023-04-16T17:08:51.956Z,9.79
2023-04-16T17:11:18.750Z,9.79
2023-04-16T17:13:45.760Z,9.77
2023-04-16T17:16:13.304Z,9.83
2023-04-16T17:18:42.865Z,9.71
2023-04-16T17:21:09.596Z,9.60
2023-04-16T17:23:36.212Z,9.69
2023-04-16T17:26:02.841Z,9.67
2023-04-16T17:28:29.454Z,9.70
2023-04-16T17:30:57.110Z,9.70
2023-04-16T17:33:23.813Z,9.60
2023-04-16T17:35:50.618Z,9.68
2023-04-16T17:38:17.296Z,9.68
2023-04-16T17:40:43.706Z,9.61
2023-04-16T17:43:13.742Z,9.55
2023-04-16T17:45:40.196Z,9.63
2023-04-16T17:48:06.917Z,9.58
2023-04-16T17:50:33.519Z,9.53
2023-04-16T17:53:04.895Z,9.56
2023-04-16T17:55:31.365Z,9.56
2023-04-16T17:57:58.038Z,9.61
2023-04-16T18:00:25.231Z,9.66
2023-04-16T18:02:52.537Z,9.58
2023-04-16T18:05:19.910Z,9.61
2023-04-16T18:07:47.191Z,9.56
2023-04-16T18:10:14.975Z,9.55
2023-04-16T18:12:41.619Z,9.48
2023-04-16T18:15:08.396Z,9.42
2023-04-16T18:17:34.880Z,9.46
2023-04-16T18:20:01.565Z,9.54
2023-04-16T18:22:31.708Z,9.48
2023-04-16T18:25:01.544Z,9.48
2023-04-16T18:27:30.096Z,9.43
2023-04-16T18:29:56.788Z,9.32
2023-04-16T18:32:23.591Z,9.36
2023-04-16T18:34:50.192Z,9.34
2023-04-16T18:37:18.025Z,9.36
2023-04-16T18:39:44.982Z,9.25
2023-04-16T18:42:11.745Z,9.33
2023-04-16T18:44:38.247Z,9.46
2023-04-16T18:47:04.964Z,9.42
2023-04-16T18:49:34.333Z,9.35
2023-04-16T18:52:02.684Z,9.39
2023-04-16T18:54:29.271Z,9.37
2023-04-16T18:56:57.345Z,9.33
2023-04-16T18:59:24.551Z,9.27
2023-04-16T19:01:51.226Z,9.36
2023-04-16T19:04:17.908Z,9.35
2023-04-16T19:06:45.062Z,9.35
2023-04-16T19:09:11.783Z,9.32
2023-04-16T19:11:38.384Z,9.35
2023-04-16T19:14:05.941Z,9.34
2023-04-16T19:16:32.536Z,9.38
2023-04-16T19:19:02.070Z,9.34
2023-04-16T19:21:28.620Z,9.30
2023-04-16T19:23:55.072Z,9.28
2023-04-16T19:26:21.558Z,9.25
2023-04-16T19:28:48.148Z,9.21
2023-04-16T19:31:14.806Z,9.25
2023-04-16T19:33:42.086Z,9.27
2023-04-16T19:36:08.579Z,9.27
2023-04-16T19:38:35.334Z,9.22
2023-04-16T19:41:01.895Z,9.14
2023-04-16T19:43:31.123Z,9.26
2023-04-16T19:45:57.920Z,9.24
2023-04-16T19:48:24.703Z,9.24
2023-04-16T19:50:51.354Z,9.18
2023-04-16T19:53:17.952Z,9.14
2023-04-16T19:55:47.575Z,9.10
2023-04-16T19:58:15.540Z,9.14
2023-04-16T20:00:42.385Z,8.98
2023-04-16T20:03:09.282Z,9.11
2023-04-16T20:05:36.014Z,9.12
2023-04-16T20:08:02.641Z,9.01
2023-04-16T20:10:31.378Z,8.94
2023-04-16T20:12:58.105Z,8.99
2023-04-16T20:15:24.610Z,8.96
2023-04-16T20:17:51.159Z,8.83
2023-04-16T20:20:17.726Z,8.84
2023-04-16T20:22:44.388Z,8.87
2023-04-16T20:25:14.763Z,8.92
2023-04-16T20:27:41.766Z,8.92
2023-04-16T20:30:09.371Z,8.95
2023-04-16T20:32:36.470Z,8.90
2023-04-16T20:35:04.415Z,8.92
2023-04-16T20:37:31.472Z,8.87
2023-04-16T20:39:57.869Z,8.95
2023-04-16T20:42:26.547Z,8.87
2023-04-16T20:44:56.780Z,8.82
2023-04-16T20:47:23.784Z,8.79
2023-04-16T20:49:50.597Z,8.90
2023-04-16T20:52:17.792Z,8.76
2023-04-16T20:54:44.411Z,8.80
2023-04-16T20:57:11.205Z,8.72
2023-04-16T20:59:37.761Z,8.72
2023-04-16T21:02:04.387Z,8.76
2023-04-16T21:04:31.174Z,8.84
2023-04-16T21:06:58.255Z,8.83
2023-04-16T21:09:24.761Z,8.75
2023-04-16T21:11:51.246Z,8.86
2023-04-16T21:14:17.651Z,8.78
2023-04-16T21:16:44.174Z,8.76
2023-04-16T21:19:11.025Z,8.77
2023-04-16T21:21:41.109Z,8.64
2023-04-16T21:24:07.660Z,8.65
2023-04-16T21:26:34.198Z,8.66
2023-04-16T21:29:01.704Z,8.81
2023-04-16T21:31:28.438Z,8.83
2023-04-16T21:33:55.726Z,8.82
2023-04-16T21:36:22.446Z,8.42
2023-04-16T21:38:49.080Z,8.56
2023-04-16T21:41:16.782Z,8.69
2023-04-16T21:43:43.313Z,8.67
2023-04-16T21:46:09.806Z,8.62
2023-04-16T21:48:36.242Z,8.69
2023-04-16T21:51:06.950Z,8.62
2023-04-16T21:53:34.131Z,8.64
2023-04-16T21:56:00.829Z,8.65
2023-04-16T21:58:31.121Z,8.66
2023-04-16T22:00:57.637Z,8.66
2023-04-16T22:03:30.432Z,8.71
2023-04-16T22:06:01.270Z,8.64
2023-04-16T22:08:31.396Z,8.67
2023-04-16T22:11:02.046Z,8.60
2023-04-16T22:13:33.673Z,8.50
2023-04-16T22:16:03.606Z,8.60
2023-04-16T22:18:33.787Z,8.37
2023-04-16T22:21:00.821Z,8.54
2023-04-16T22:23:27.652Z,8.59
2023-04-16T22:25:54.885Z,8.56
2023-04-16T22:28:22.190Z,8.56
2023-04-16T22:30:48.802Z,8.72
2023-04-16T22:33:15.999Z,8.63
2023-04-16T22:35:42.606Z,8.58
2023-04-16T22:38:12.109Z,8.64
2023-04-16T22:40:42.897Z,8.54
2023-04-16T22:43:09.643Z,8.58
2023-04-16T22:45:38.875Z,8.58
2023-04-16T22:48:05.516Z,8.59
2023-04-16T22:50:32.196Z,8.67
2023-04-16T22:52:59.003Z,8.64
2023-04-16T22:55:25.685Z,8.57
2023-04-16T22:57:52.323Z,8.69
2023-04-16T23:00:19.507Z,8.73
2023-04-16T23:02:46.251Z,8.68
2023-04-16T23:05:13.324Z,8.68
2023-04-16T23:07:44.391Z,8.69
2023-04-16T23:10:11.025Z,8.69
2023-04-16T23:12:37.697Z,8.65
2023-04-16T23:15:06.614Z,8.67
2023-04-16T23:17:34.103Z,8.73
2023-04-16T23:20:00.835Z,8.70
2023-04-16T23:22:27.682Z,8.69
2023-04-16T23:24:54.297Z,8.75
2023-04-16T23:27:21.825Z,8.75
2023-04-16T23:29:48.580Z,8.81
2023-04-16T23:32:15.477Z,8.76
2023-04-16T23:34:42.921Z,8.83
2023-04-16T23:37:10.530Z,8.78
2023-04-16T23:39:37.095Z,8.79
2023-04-16T23:42:10.408Z,8.85
2023-04-16T23:44:36.993Z,8.87
2023-04-16T23:47:05.399Z,8.84
2023-04-16T23:49:31.957Z,8.87
2023-04-16T23:51:58.704Z,8.90
2023-04-16T23:54:26.051Z,8.82
2023-04-16T23:56:52.663Z,8.70
2023-04-16T23:59:19.273Z,8.63
